sensor_id;sensor_type;location;lat;lon;timestamp;P1;durP1;ratioP1;P2;durP2;ratioP2
58669;SDS011;44439;47.924;10.198;2022-08-25T00:02:31;2.67;;;2.10;;
58669;SDS011;44439;47.924;10.198;2022-08-25T00:05:17;2.53;;;2.15;;
58669;SDS011;44439;47.924;10.198;2022-08-25T00:08:03;4.97;;;2.75;;
58669;SDS011;44439;47.924;10.198;2022-08-25T00:10:50;2.88;;;2.58;;
58669;SDS011;44439;47.924;10.198;2022-08-25T00:13:36;3.60;;;2.20;;
58669;SDS011;44439;47.924;10.198;2022-08-25T00:16:23;2.30;;;2.13;;
58669;SDS011;44439;47.924;10.198;2022-08-25T00:19:12;3.00;;;2.30;;
58669;SDS011;44439;47.924;10.198;2022-08-25T00:22:00;3.38;;;2.53;;
58669;SDS011;44439;47.924;10.198;2022-08-25T00:24:47;2.88;;;2.50;;
58669;SDS011;44439;47.924;10.198;2022-08-25T00:27:33;3.63;;;2.47;;
58669;SDS011;44439;47.924;10.198;2022-08-25T00:30:18;4.25;;;2.25;;
58669;SDS011;44439;47.924;10.198;2022-08-25T00:33:04;4.10;;;2.10;;
58669;SDS011;44439;47.924;10.198;2022-08-25T00:35:50;4.07;;;2.42;;
58669;SDS011;44439;47.924;10.198;2022-08-25T00:38:40;3.85;;;2.78;;
58669;SDS011;44439;47.924;10.198;2022-08-25T00:41:27;3.40;;;2.80;;
58669;SDS011;44439;47.924;10.198;2022-08-25T00:44:13;5.00;;;2.85;;
58669;SDS011;44439;47.924;10.198;2022-08-25T00:47:02;6.97;;;2.85;;
58669;SDS011;44439;47.924;10.198;2022-08-25T00:49:49;2.88;;;2.58;;
58669;SDS011;44439;47.924;10.198;2022-08-25T00:55:37;3.63;;;2.55;;
58669;SDS011;44439;47.924;10.198;2022-08-25T00:58:25;4.80;;;2.80;;
58669;SDS011;44439;47.924;10.198;2022-08-25T01:01:12;2.95;;;2.70;;
58669;SDS011;44439;47.924;10.198;2022-08-25T01:03:58;3.78;;;3.00;;
58669;SDS011;44439;47.924;10.198;2022-08-25T01:06:44;3.10;;;2.75;;
58669;SDS011;44439;47.924;10.198;2022-08-25T01:09:30;3.65;;;3.33;;
58669;SDS011;44439;47.924;10.198;2022-08-25T01:12:16;3.83;;;3.25;;
58669;SDS011;44439;47.924;10.198;2022-08-25T01:15:03;4.38;;;3.20;;
58669;SDS011;44439;47.924;10.198;2022-08-25T01:17:51;3.67;;;3.30;;
58669;SDS011;44439;47.924;10.198;2022-08-25T01:20:38;6.10;;;3.30;;
58669;SDS011;44439;47.924;10.198;2022-08-25T01:23:24;3.58;;;3.13;;
58669;SDS011;44439;47.924;10.198;2022-08-25T01:26:12;5.32;;;2.92;;
58669;SDS011;44439;47.924;10.198;2022-08-25T01:29:01;3.38;;;3.00;;
58669;SDS011;44439;47.924;10.198;2022-08-25T01:32:07;4.07;;;3.28;;
58669;SDS011;44439;47.924;10.198;2022-08-25T01:34:55;4.07;;;2.97;;
58669;SDS011;44439;47.924;10.198;2022-08-25T01:37:40;4.00;;;3.10;;
58669;SDS011;44439;47.924;10.198;2022-08-25T01:40:26;3.90;;;2.90;;
58669;SDS011;44439;47.924;10.198;2022-08-25T01:43:25;3.92;;;3.55;;
58669;SDS011;44439;47.924;10.198;2022-08-25T01:46:16;7.45;;;3.15;;
58669;SDS011;44439;47.924;10.198;2022-08-25T01:49:02;6.93;;;3.28;;
58669;SDS011;44439;47.924;10.198;2022-08-25T01:51:54;5.18;;;3.22;;
58669;SDS011;44439;47.924;10.198;2022-08-25T01:54:41;3.13;;;2.78;;
58669;SDS011;44439;47.924;10.198;2022-08-25T01:57:28;3.15;;;2.83;;
58669;SDS011;44439;47.924;10.198;2022-08-25T02:00:16;4.03;;;3.17;;
58669;SDS011;44439;47.924;10.198;2022-08-25T02:03:02;5.32;;;3.00;;
58669;SDS011;44439;47.924;10.198;2022-08-25T02:05:48;3.17;;;2.88;;
58669;SDS011;44439;47.924;10.198;2022-08-25T02:08:34;3.70;;;2.60;;
58669;SDS011;44439;47.924;10.198;2022-08-25T02:11:20;3.20;;;2.90;;
58669;SDS011;44439;47.924;10.198;2022-08-25T02:14:08;3.40;;;2.92;;
58669;SDS011;44439;47.924;10.198;2022-08-25T02:16:55;4.43;;;3.75;;
58669;SDS011;44439;47.924;10.198;2022-08-25T02:19:41;3.65;;;3.25;;
58669;SDS011;44439;47.924;10.198;2022-08-25T02:22:27;4.38;;;2.88;;
58669;SDS011;44439;47.924;10.198;2022-08-25T02:25:13;6.22;;;3.30;;
58669;SDS011;44439;47.924;10.198;2022-08-25T02:27:59;4.63;;;3.28;;
58669;SDS011;44439;47.924;10.198;2022-08-25T02:30:45;4.18;;;3.58;;
58669;SDS011;44439;47.924;10.198;2022-08-25T02:33:32;5.22;;;3.65;;
58669;SDS011;44439;47.924;10.198;2022-08-25T02:36:18;4.70;;;3.72;;
58669;SDS011;44439;47.924;10.198;2022-08-25T02:39:05;4.07;;;3.30;;
58669;SDS011;44439;47.924;10.198;2022-08-25T02:41:51;2.75;;;2.53;;
58669;SDS011;44439;47.924;10.198;2022-08-25T02:44:37;3.80;;;3.17;;
58669;SDS011;44439;47.924;10.198;2022-08-25T02:47:23;4.93;;;3.45;;
58669;SDS011;44439;47.924;10.198;2022-08-25T02:50:09;5.38;;;3.88;;
58669;SDS011;44439;47.924;10.198;2022-08-25T02:52:55;4.20;;;3.70;;
58669;SDS011;44439;47.924;10.198;2022-08-25T02:55:41;4.53;;;3.47;;
58669;SDS011;44439;47.924;10.198;2022-08-25T02:58:27;3.90;;;3.50;;
58669;SDS011;44439;47.924;10.198;2022-08-25T03:01:13;4.00;;;3.60;;
58669;SDS011;44439;47.924;10.198;2022-08-25T03:04:00;3.90;;;3.50;;
58669;SDS011;44439;47.924;10.198;2022-08-25T03:06:46;4.15;;;3.50;;
58669;SDS011;44439;47.924;10.198;2022-08-25T03:09:32;4.72;;;3.88;;
58669;SDS011;44439;47.924;10.198;2022-08-25T03:12:17;3.88;;;3.45;;
58669;SDS011;44439;47.924;10.198;2022-08-25T03:15:03;8.13;;;4.00;;
58669;SDS011;44439;47.924;10.198;2022-08-25T03:17:49;4.47;;;3.58;;
58669;SDS011;44439;47.924;10.198;2022-08-25T03:20:35;4.20;;;3.40;;
58669;SDS011;44439;47.924;10.198;2022-08-25T03:23:22;6.82;;;3.80;;
58669;SDS011;44439;47.924;10.198;2022-08-25T03:26:08;5.03;;;3.63;;
58669;SDS011;44439;47.924;10.198;2022-08-25T03:29:15;5.45;;;3.75;;
58669;SDS011;44439;47.924;10.198;2022-08-25T03:32:02;4.07;;;3.70;;
58669;SDS011;44439;47.924;10.198;2022-08-25T03:34:48;5.57;;;4.28;;
58669;SDS011;44439;47.924;10.198;2022-08-25T03:37:34;7.00;;;4.40;;
58669;SDS011;44439;47.924;10.198;2022-08-25T03:40:20;3.92;;;3.53;;
58669;SDS011;44439;47.924;10.198;2022-08-25T03:43:06;6.00;;;3.90;;
58669;SDS011;44439;47.924;10.198;2022-08-25T03:45:52;4.32;;;3.70;;
58669;SDS011;44439;47.924;10.198;2022-08-25T03:48:37;4.25;;;3.80;;
58669;SDS011;44439;47.924;10.198;2022-08-25T03:51:33;4.88;;;3.47;;
58669;SDS011;44439;47.924;10.198;2022-08-25T03:54:22;5.22;;;3.75;;
58669;SDS011;44439;47.924;10.198;2022-08-25T03:57:09;7.50;;;4.35;;
58669;SDS011;44439;47.924;10.198;2022-08-25T03:59:55;5.55;;;4.07;;
58669;SDS011;44439;47.924;10.198;2022-08-25T04:02:41;4.57;;;4.10;;
58669;SDS011;44439;47.924;10.198;2022-08-25T04:05:27;5.68;;;4.55;;
58669;SDS011;44439;47.924;10.198;2022-08-25T04:08:12;5.28;;;4.03;;
58669;SDS011;44439;47.924;10.198;2022-08-25T04:10:58;4.85;;;4.28;;
58669;SDS011;44439;47.924;10.198;2022-08-25T04:13:59;4.05;;;3.45;;
58669;SDS011;44439;47.924;10.198;2022-08-25T04:16:46;5.07;;;3.28;;
58669;SDS011;44439;47.924;10.198;2022-08-25T04:19:32;4.60;;;3.22;;
58669;SDS011;44439;47.924;10.198;2022-08-25T04:22:17;3.70;;;2.97;;
58669;SDS011;44439;47.924;10.198;2022-08-25T04:25:04;5.25;;;3.75;;
58669;SDS011;44439;47.924;10.198;2022-08-25T04:27:50;5.93;;;3.50;;
58669;SDS011;44439;47.924;10.198;2022-08-25T04:30:36;4.55;;;3.90;;
58669;SDS011;44439;47.924;10.198;2022-08-25T04:33:26;5.47;;;3.45;;
58669;SDS011;44439;47.924;10.198;2022-08-25T04:36:13;3.92;;;3.50;;
58669;SDS011;44439;47.924;10.198;2022-08-25T04:39:00;4.15;;;3.22;;
58669;SDS011;44439;47.924;10.198;2022-08-25T04:41:46;5.32;;;3.70;;
58669;SDS011;44439;47.924;10.198;2022-08-25T04:44:33;6.00;;;3.80;;
58669;SDS011;44439;47.924;10.198;2022-08-25T04:47:19;3.67;;;3.28;;
58669;SDS011;44439;47.924;10.198;2022-08-25T04:50:05;4.00;;;3.42;;
58669;SDS011;44439;47.924;10.198;2022-08-25T04:52:51;4.78;;;3.70;;
58669;SDS011;44439;47.924;10.198;2022-08-25T04:55:41;4.60;;;3.60;;
58669;SDS011;44439;47.924;10.198;2022-08-25T04:58:27;6.78;;;3.35;;
58669;SDS011;44439;47.924;10.198;2022-08-25T05:01:14;5.57;;;3.33;;
58669;SDS011;44439;47.924;10.198;2022-08-25T05:04:03;3.50;;;3.20;;
58669;SDS011;44439;47.924;10.198;2022-08-25T05:06:49;5.10;;;3.47;;
58669;SDS011;44439;47.924;10.198;2022-08-25T05:09:35;4.85;;;3.33;;
58669;SDS011;44439;47.924;10.198;2022-08-25T05:12:22;5.60;;;3.67;;
58669;SDS011;44439;47.924;10.198;2022-08-25T05:15:07;4.97;;;3.60;;
58669;SDS011;44439;47.924;10.198;2022-08-25T05:18:12;4.10;;;3.70;;
58669;SDS011;44439;47.924;10.198;2022-08-25T05:21:08;4.30;;;3.85;;
58669;SDS011;44439;47.924;10.198;2022-08-25T05:23:55;5.88;;;3.60;;
58669;SDS011;44439;47.924;10.198;2022-08-25T05:26:42;4.50;;;3.97;;
58669;SDS011;44439;47.924;10.198;2022-08-25T05:29:28;6.72;;;3.80;;
58669;SDS011;44439;47.924;10.198;2022-08-25T05:32:13;5.50;;;3.97;;
58669;SDS011;44439;47.924;10.198;2022-08-25T05:34:59;6.15;;;4.10;;
58669;SDS011;44439;47.924;10.198;2022-08-25T05:37:45;7.40;;;3.97;;
58669;SDS011;44439;47.924;10.198;2022-08-25T05:40:31;6.20;;;3.90;;
58669;SDS011;44439;47.924;10.198;2022-08-25T05:43:17;4.53;;;3.70;;
58669;SDS011;44439;47.924;10.198;2022-08-25T05:46:02;4.20;;;3.50;;
58669;SDS011;44439;47.924;10.198;2022-08-25T05:48:48;7.03;;;3.95;;
58669;SDS011;44439;47.924;10.198;2022-08-25T05:51:34;6.00;;;3.88;;
58669;SDS011;44439;47.924;10.198;2022-08-25T05:54:20;5.60;;;4.03;;
58669;SDS011;44439;47.924;10.198;2022-08-25T05:57:06;7.30;;;3.92;;
58669;SDS011;44439;47.924;10.198;2022-08-25T05:59:51;6.90;;;4.30;;
58669;SDS011;44439;47.924;10.198;2022-08-25T06:02:38;4.20;;;3.80;;
58669;SDS011;44439;47.924;10.198;2022-08-25T06:05:28;4.30;;;3.75;;
58669;SDS011;44439;47.924;10.198;2022-08-25T06:08:14;4.18;;;3.33;;
58669;SDS011;44439;47.924;10.198;2022-08-25T06:11:00;4.30;;;3.90;;
58669;SDS011;44439;47.924;10.198;2022-08-25T06:13:46;4.72;;;3.60;;
58669;SDS011;44439;47.924;10.198;2022-08-25T06:16:31;5.57;;;3.80;;
58669;SDS011;44439;47.924;10.198;2022-08-25T06:19:17;4.25;;;3.60;;
58669;SDS011;44439;47.924;10.198;2022-08-25T06:22:03;4.43;;;3.72;;
58669;SDS011;44439;47.924;10.198;2022-08-25T06:24:48;7.50;;;3.78;;
58669;SDS011;44439;47.924;10.198;2022-08-25T06:27:34;5.00;;;3.75;;
58669;SDS011;44439;47.924;10.198;2022-08-25T06:30:20;4.28;;;3.65;;
58669;SDS011;44439;47.924;10.198;2022-08-25T06:33:07;4.15;;;3.70;;
58669;SDS011;44439;47.924;10.198;2022-08-25T06:35:53;5.60;;;3.80;;
58669;SDS011;44439;47.924;10.198;2022-08-25T06:38:42;7.55;;;3.20;;
58669;SDS011;44439;47.924;10.198;2022-08-25T06:41:28;4.80;;;3.78;;
58669;SDS011;44439;47.924;10.198;2022-08-25T06:44:14;7.22;;;4.07;;
58669;SDS011;44439;47.924;10.198;2022-08-25T06:47:00;7.53;;;4.82;;
58669;SDS011;44439;47.924;10.198;2022-08-25T06:49:46;9.57;;;4.38;;
58669;SDS011;44439;47.924;10.198;2022-08-25T06:52:32;6.70;;;4.10;;
58669;SDS011;44439;47.924;10.198;2022-08-25T06:55:18;7.78;;;4.60;;
58669;SDS011;44439;47.924;10.198;2022-08-25T06:58:04;6.45;;;4.22;;
58669;SDS011;44439;47.924;10.198;2022-08-25T07:00:49;7.45;;;4.43;;
58669;SDS011;44439;47.924;10.198;2022-08-25T07:03:35;7.18;;;4.75;;
58669;SDS011;44439;47.924;10.198;2022-08-25T07:06:21;4.80;;;4.10;;
58669;SDS011;44439;47.924;10.198;2022-08-25T07:09:08;6.00;;;4.38;;
58669;SDS011;44439;47.924;10.198;2022-08-25T07:11:54;6.85;;;4.90;;
58669;SDS011;44439;47.924;10.198;2022-08-25T07:14:41;7.50;;;4.80;;
58669;SDS011;44439;47.924;10.198;2022-08-25T07:17:28;6.93;;;4.57;;
58669;SDS011;44439;47.924;10.198;2022-08-25T07:20:14;7.78;;;4.45;;
58669;SDS011;44439;47.924;10.198;2022-08-25T07:23:00;4.82;;;4.32;;
58669;SDS011;44439;47.924;10.198;2022-08-25T07:25:46;10.52;;;5.03;;
58669;SDS011;44439;47.924;10.198;2022-08-25T07:28:32;7.88;;;4.85;;
58669;SDS011;44439;47.924;10.198;2022-08-25T07:31:17;5.65;;;4.72;;
58669;SDS011;44439;47.924;10.198;2022-08-25T07:34:03;7.07;;;4.78;;
58669;SDS011;44439;47.924;10.198;2022-08-25T07:37:08;6.43;;;5.05;;
58669;SDS011;44439;47.924;10.198;2022-08-25T07:39:54;7.78;;;4.90;;
58669;SDS011;44439;47.924;10.198;2022-08-25T07:42:40;5.93;;;4.35;;
58669;SDS011;44439;47.924;10.198;2022-08-25T07:45:27;7.18;;;4.65;;
58669;SDS011;44439;47.924;10.198;2022-08-25T07:48:15;5.07;;;4.57;;
58669;SDS011;44439;47.924;10.198;2022-08-25T07:51:06;8.95;;;5.15;;
58669;SDS011;44439;47.924;10.198;2022-08-25T07:53:53;7.45;;;5.20;;
58669;SDS011;44439;47.924;10.198;2022-08-25T07:56:39;7.22;;;4.80;;
58669;SDS011;44439;47.924;10.198;2022-08-25T07:59:27;6.63;;;4.90;;
58669;SDS011;44439;47.924;10.198;2022-08-25T08:02:13;6.32;;;4.53;;
58669;SDS011;44439;47.924;10.198;2022-08-25T08:04:59;7.45;;;5.20;;
58669;SDS011;44439;47.924;10.198;2022-08-25T08:07:44;4.72;;;4.32;;
58669;SDS011;44439;47.924;10.198;2022-08-25T08:10:30;5.93;;;5.32;;
58669;SDS011;44439;47.924;10.198;2022-08-25T08:13:16;6.72;;;5.70;;
58669;SDS011;44439;47.924;10.198;2022-08-25T08:16:02;5.82;;;5.22;;
58669;SDS011;44439;47.924;10.198;2022-08-25T08:18:53;5.45;;;4.78;;
58669;SDS011;44439;47.924;10.198;2022-08-25T08:21:38;5.38;;;4.88;;
58669;SDS011;44439;47.924;10.198;2022-08-25T08:24:24;5.97;;;5.38;;
58669;SDS011;44439;47.924;10.198;2022-08-25T08:27:11;6.50;;;5.15;;
58669;SDS011;44439;47.924;10.198;2022-08-25T08:29:57;7.78;;;5.15;;
58669;SDS011;44439;47.924;10.198;2022-08-25T08:32:43;7.78;;;5.00;;
58669;SDS011;44439;47.924;10.198;2022-08-25T08:35:34;6.65;;;5.95;;
58669;SDS011;44439;47.924;10.198;2022-08-25T08:38:19;7.20;;;5.22;;
58669;SDS011;44439;47.924;10.198;2022-08-25T08:50:32;8.93;;;5.10;;
58669;SDS011;44439;47.924;10.198;2022-08-25T08:53:26;7.47;;;5.88;;
58669;SDS011;44439;47.924;10.198;2022-08-25T08:56:30;6.05;;;5.45;;
58669;SDS011;44439;47.924;10.198;2022-08-25T08:59:21;5.18;;;4.68;;
58669;SDS011;44439;47.924;10.198;2022-08-25T09:02:14;5.30;;;4.80;;
58669;SDS011;44439;47.924;10.198;2022-08-25T09:05:06;5.85;;;4.82;;
58669;SDS011;44439;47.924;10.198;2022-08-25T09:07:54;5.18;;;4.68;;
58669;SDS011;44439;47.924;10.198;2022-08-25T09:23:41;6.03;;;3.97;;
58669;SDS011;44439;47.924;10.198;2022-08-25T09:29:22;4.85;;;4.45;;
58669;SDS011;44439;47.924;10.198;2022-08-25T09:32:10;4.45;;;3.85;;
58669;SDS011;44439;47.924;10.198;2022-08-25T09:34:56;4.85;;;4.13;;
58669;SDS011;44439;47.924;10.198;2022-08-25T09:37:42;5.05;;;3.88;;
58669;SDS011;44439;47.924;10.198;2022-08-25T09:40:29;5.57;;;4.43;;
58669;SDS011;44439;47.924;10.198;2022-08-25T09:43:34;5.07;;;4.33;;
58669;SDS011;44439;47.924;10.198;2022-08-25T09:46:27;4.97;;;4.47;;
58669;SDS011;44439;47.924;10.198;2022-08-25T09:49:13;4.80;;;3.95;;
58669;SDS011;44439;47.924;10.198;2022-08-25T09:52:43;4.72;;;4.13;;
58669;SDS011;44439;47.924;10.198;2022-08-25T09:57:58;4.95;;;3.65;;
58669;SDS011;44439;47.924;10.198;2022-08-25T10:00:44;5.55;;;4.32;;
58669;SDS011;44439;47.924;10.198;2022-08-25T10:03:52;4.82;;;3.30;;
58669;SDS011;44439;47.924;10.198;2022-08-25T10:06:48;7.07;;;4.45;;
58669;SDS011;44439;47.924;10.198;2022-08-25T10:09:41;4.43;;;3.97;;
58669;SDS011;44439;47.924;10.198;2022-08-25T10:12:33;4.57;;;3.58;;
58669;SDS011;44439;47.924;10.198;2022-08-25T10:15:25;4.15;;;3.75;;
58669;SDS011;44439;47.924;10.198;2022-08-25T10:18:20;5.20;;;3.83;;
58669;SDS011;44439;47.924;10.198;2022-08-25T10:21:14;4.80;;;4.35;;
58669;SDS011;44439;47.924;10.198;2022-08-25T10:24:01;4.40;;;3.70;;
58669;SDS011;44439;47.924;10.198;2022-08-25T10:33:07;6.38;;;3.47;;
58669;SDS011;44439;47.924;10.198;2022-08-25T10:35:59;5.25;;;3.67;;
58669;SDS011;44439;47.924;10.198;2022-08-25T10:39:04;3.97;;;3.53;;
58669;SDS011;44439;47.924;10.198;2022-08-25T10:42:02;6.80;;;3.60;;
58669;SDS011;44439;47.924;10.198;2022-08-25T11:00:36;3.28;;;2.97;;
58669;SDS011;44439;47.924;10.198;2022-08-25T11:09:28;3.47;;;3.03;;
58669;SDS011;44439;47.924;10.198;2022-08-25T11:12:31;3.28;;;2.97;;
58669;SDS011;44439;47.924;10.198;2022-08-25T11:15:30;4.15;;;3.40;;
58669;SDS011;44439;47.924;10.198;2022-08-25T11:18:26;4.60;;;3.30;;
58669;SDS011;44439;47.924;10.198;2022-08-25T11:21:19;4.45;;;3.20;;
58669;SDS011;44439;47.924;10.198;2022-08-25T11:24:14;4.43;;;3.20;;
58669;SDS011;44439;47.924;10.198;2022-08-25T11:27:19;4.20;;;3.35;;
58669;SDS011;44439;47.924;10.198;2022-08-25T11:30:08;5.53;;;2.83;;
58669;SDS011;44439;47.924;10.198;2022-08-25T11:32:55;3.72;;;3.05;;
58669;SDS011;44439;47.924;10.198;2022-08-25T11:35:42;4.28;;;3.40;;
58669;SDS011;44439;47.924;10.198;2022-08-25T11:41:24;5.75;;;2.90;;
58669;SDS011;44439;47.924;10.198;2022-08-25T11:47:35;3.05;;;2.75;;
58669;SDS011;44439;47.924;10.198;2022-08-25T11:53:21;3.78;;;3.30;;
58669;SDS011;44439;47.924;10.198;2022-08-25T11:56:30;4.90;;;3.28;;
58669;SDS011;44439;47.924;10.198;2022-08-25T11:59:57;4.18;;;2.88;;
58669;SDS011;44439;47.924;10.198;2022-08-25T12:02:46;6.78;;;3.08;;
58669;SDS011;44439;47.924;10.198;2022-08-25T12:17:17;4.05;;;2.63;;
58669;SDS011;44439;47.924;10.198;2022-08-25T12:20:08;4.07;;;2.80;;
58669;SDS011;44439;47.924;10.198;2022-08-25T12:22:54;4.28;;;2.53;;
58669;SDS011;44439;47.924;10.198;2022-08-25T12:25:43;4.20;;;3.08;;
58669;SDS011;44439;47.924;10.198;2022-08-25T12:28:33;2.75;;;2.50;;
58669;SDS011;44439;47.924;10.198;2022-08-25T12:31:34;3.90;;;3.40;;
58669;SDS011;44439;47.924;10.198;2022-08-25T12:34:33;4.80;;;2.67;;
58669;SDS011;44439;47.924;10.198;2022-08-25T12:37:31;3.10;;;2.80;;
58669;SDS011;44439;47.924;10.198;2022-08-25T12:40:21;2.72;;;2.50;;
58669;SDS011;44439;47.924;10.198;2022-08-25T12:43:12;2.97;;;2.67;;
58669;SDS011;44439;47.924;10.198;2022-08-25T12:52:17;5.20;;;2.20;;
58669;SDS011;44439;47.924;10.198;2022-08-25T12:55:05;3.22;;;2.90;;
58669;SDS011;44439;47.924;10.198;2022-08-25T12:57:55;3.05;;;2.40;;
58669;SDS011;44439;47.924;10.198;2022-08-25T13:07:47;4.45;;;2.47;;
58669;SDS011;44439;47.924;10.198;2022-08-25T13:10:57;3.45;;;2.53;;
58669;SDS011;44439;47.924;10.198;2022-08-25T13:14:05;2.80;;;2.30;;
58669;SDS011;44439;47.924;10.198;2022-08-25T13:16:59;2.42;;;2.20;;
58669;SDS011;44439;47.924;10.198;2022-08-25T13:19:45;3.90;;;2.50;;
58669;SDS011;44439;47.924;10.198;2022-08-25T13:22:31;2.60;;;2.25;;
58669;SDS011;44439;47.924;10.198;2022-08-25T13:25:17;3.40;;;2.13;;
58669;SDS011;44439;47.924;10.198;2022-08-25T13:28:05;3.33;;;2.28;;
58669;SDS011;44439;47.924;10.198;2022-08-25T13:30:55;2.92;;;2.40;;
58669;SDS011;44439;47.924;10.198;2022-08-25T13:33:52;3.42;;;2.10;;
58669;SDS011;44439;47.924;10.198;2022-08-25T13:36:42;2.70;;;2.30;;
58669;SDS011;44439;47.924;10.198;2022-08-25T13:39:47;3.40;;;2.27;;
58669;SDS011;44439;47.924;10.198;2022-08-25T13:42:33;4.88;;;2.45;;
58669;SDS011;44439;47.924;10.198;2022-08-25T13:45:22;4.05;;;2.05;;
58669;SDS011;44439;47.924;10.198;2022-08-25T13:48:10;4.45;;;2.15;;
58669;SDS011;44439;47.924;10.198;2022-08-25T13:51:04;2.10;;;1.90;;
58669;SDS011;44439;47.924;10.198;2022-08-25T13:54:00;3.33;;;2.35;;
58669;SDS011;44439;47.924;10.198;2022-08-25T13:56:48;3.63;;;2.80;;
58669;SDS011;44439;47.924;10.198;2022-08-25T13:59:35;2.35;;;2.15;;
58669;SDS011;44439;47.924;10.198;2022-08-25T14:02:40;2.53;;;2.10;;
58669;SDS011;44439;47.924;10.198;2022-08-25T14:05:37;2.30;;;2.10;;
58669;SDS011;44439;47.924;10.198;2022-08-25T14:08:31;2.45;;;2.22;;
58669;SDS011;44439;47.924;10.198;2022-08-25T14:11:29;2.40;;;2.20;;
58669;SDS011;44439;47.924;10.198;2022-08-25T14:17:08;3.58;;;1.90;;
58669;SDS011;44439;47.924;10.198;2022-08-25T14:19:54;2.80;;;2.10;;
58669;SDS011;44439;47.924;10.198;2022-08-25T14:22:41;2.40;;;1.90;;
58669;SDS011;44439;47.924;10.198;2022-08-25T14:25:27;3.88;;;1.80;;
58669;SDS011;44439;47.924;10.198;2022-08-25T14:28:17;3.80;;;1.90;;
58669;SDS011;44439;47.924;10.198;2022-08-25T14:31:06;3.75;;;2.00;;
58669;SDS011;44439;47.924;10.198;2022-08-25T14:33:57;2.63;;;1.95;;
58669;SDS011;44439;47.924;10.198;2022-08-25T14:36:45;2.65;;;2.10;;
58669;SDS011;44439;47.924;10.198;2022-08-25T14:39:32;2.50;;;2.17;;
58669;SDS011;44439;47.924;10.198;2022-08-25T14:42:18;3.33;;;2.10;;
58669;SDS011;44439;47.924;10.198;2022-08-25T14:45:04;4.78;;;2.10;;
58669;SDS011;44439;47.924;10.198;2022-08-25T14:47:50;2.22;;;2.03;;
58669;SDS011;44439;47.924;10.198;2022-08-25T14:50:36;2.20;;;2.00;;
58669;SDS011;44439;47.924;10.198;2022-08-25T14:53:23;5.55;;;2.20;;
58669;SDS011;44439;47.924;10.198;2022-08-25T14:56:08;4.88;;;2.03;;
58669;SDS011;44439;47.924;10.198;2022-08-25T14:58:54;2.13;;;1.83;;
58669;SDS011;44439;47.924;10.198;2022-08-25T15:01:40;5.10;;;2.03;;
58669;SDS011;44439;47.924;10.198;2022-08-25T15:04:27;2.38;;;1.90;;
58669;SDS011;44439;47.924;10.198;2022-08-25T15:07:14;2.30;;;1.92;;
58669;SDS011;44439;47.924;10.198;2022-08-25T15:10:19;2.40;;;2.00;;
58669;SDS011;44439;47.924;10.198;2022-08-25T15:13:04;2.90;;;2.30;;
58669;SDS011;44439;47.924;10.198;2022-08-25T15:15:50;2.55;;;2.00;;
58669;SDS011;44439;47.924;10.198;2022-08-25T15:18:36;3.50;;;2.17;;
58669;SDS011;44439;47.924;10.198;2022-08-25T15:21:21;12.07;;;2.72;;
58669;SDS011;44439;47.924;10.198;2022-08-25T15:24:08;2.22;;;1.73;;
58669;SDS011;44439;47.924;10.198;2022-08-25T15:26:56;2.83;;;2.13;;
58669;SDS011;44439;47.924;10.198;2022-08-25T15:29:43;2.33;;;2.08;;
58669;SDS011;44439;47.924;10.198;2022-08-25T15:32:29;2.13;;;1.92;;
58669;SDS011;44439;47.924;10.198;2022-08-25T15:35:15;2.65;;;2.25;;
58669;SDS011;44439;47.924;10.198;2022-08-25T15:38:00;5.68;;;1.95;;
58669;SDS011;44439;47.924;10.198;2022-08-25T15:40:46;2.08;;;1.90;;
58669;SDS011;44439;47.924;10.198;2022-08-25T15:43:32;2.00;;;1.75;;
58669;SDS011;44439;47.924;10.198;2022-08-25T15:46:19;3.67;;;2.20;;
58669;SDS011;44439;47.924;10.198;2022-08-25T15:49:06;2.20;;;1.90;;
58669;SDS011;44439;47.924;10.198;2022-08-25T15:51:52;3.70;;;2.10;;
58669;SDS011;44439;47.924;10.198;2022-08-25T15:54:38;2.25;;;1.90;;
58669;SDS011;44439;47.924;10.198;2022-08-25T15:57:24;5.50;;;2.20;;
58669;SDS011;44439;47.924;10.198;2022-08-25T16:00:10;5.10;;;1.98;;
58669;SDS011;44439;47.924;10.198;2022-08-25T16:02:56;3.17;;;2.03;;
58669;SDS011;44439;47.924;10.198;2022-08-25T16:05:42;3.30;;;2.15;;
58669;SDS011;44439;47.924;10.198;2022-08-25T16:08:28;5.22;;;2.00;;
58669;SDS011;44439;47.924;10.198;2022-08-25T16:11:15;3.63;;;2.08;;
58669;SDS011;44439;47.924;10.198;2022-08-25T16:14:05;2.10;;;1.90;;
58669;SDS011;44439;47.924;10.198;2022-08-25T16:16:51;3.38;;;2.00;;
58669;SDS011;44439;47.924;10.198;2022-08-25T16:19:37;1.95;;;1.75;;
58669;SDS011;44439;47.924;10.198;2022-08-25T16:22:22;2.25;;;1.70;;
58669;SDS011;44439;47.924;10.198;2022-08-25T16:25:08;3.20;;;1.90;;
58669;SDS011;44439;47.924;10.198;2022-08-25T16:27:54;2.50;;;1.88;;
58669;SDS011;44439;47.924;10.198;2022-08-25T16:30:44;2.67;;;1.88;;
58669;SDS011;44439;47.924;10.198;2022-08-25T16:33:31;2.92;;;1.90;;
58669;SDS011;44439;47.924;10.198;2022-08-25T16:36:19;1.73;;;1.58;;
58669;SDS011;44439;47.924;10.198;2022-08-25T16:39:06;2.45;;;1.90;;
58669;SDS011;44439;47.924;10.198;2022-08-25T16:41:52;2.35;;;1.73;;
58669;SDS011;44439;47.924;10.198;2022-08-25T16:44:38;2.42;;;2.15;;
58669;SDS011;44439;47.924;10.198;2022-08-25T16:47:24;4.72;;;2.30;;
58669;SDS011;44439;47.924;10.198;2022-08-25T16:50:09;3.25;;;2.08;;
58669;SDS011;44439;47.924;10.198;2022-08-25T16:52:58;2.15;;;1.95;;
58669;SDS011;44439;47.924;10.198;2022-08-25T16:56:03;2.63;;;1.90;;
58669;SDS011;44439;47.924;10.198;2022-08-25T16:58:53;4.03;;;1.85;;
58669;SDS011;44439;47.924;10.198;2022-08-25T17:01:40;3.35;;;1.88;;
58669;SDS011;44439;47.924;10.198;2022-08-25T17:04:26;2.72;;;1.90;;
58669;SDS011;44439;47.924;10.198;2022-08-25T17:07:12;3.03;;;2.00;;
58669;SDS011;44439;47.924;10.198;2022-08-25T17:09:57;3.40;;;2.10;;
58669;SDS011;44439;47.924;10.198;2022-08-25T17:12:43;3.63;;;1.80;;
58669;SDS011;44439;47.924;10.198;2022-08-25T17:15:29;1.95;;;1.75;;
58669;SDS011;44439;47.924;10.198;2022-08-25T17:18:15;4.53;;;2.10;;
58669;SDS011;44439;47.924;10.198;2022-08-25T17:23:52;2.65;;;2.45;;
58669;SDS011;44439;47.924;10.198;2022-08-25T17:26:41;3.70;;;3.30;;
58669;SDS011;44439;47.924;10.198;2022-08-25T17:29:27;7.18;;;5.63;;
58669;SDS011;44439;47.924;10.198;2022-08-25T17:32:13;4.88;;;3.63;;
58669;SDS011;44439;47.924;10.198;2022-08-25T17:34:58;6.60;;;5.28;;
58669;SDS011;44439;47.924;10.198;2022-08-25T17:37:44;9.50;;;8.32;;
58669;SDS011;44439;47.924;10.198;2022-08-25T17:40:30;6.95;;;5.70;;
58669;SDS011;44439;47.924;10.198;2022-08-25T17:43:16;6.10;;;5.05;;
58669;SDS011;44439;47.924;10.198;2022-08-25T17:46:01;6.85;;;4.45;;
58669;SDS011;44439;47.924;10.198;2022-08-25T17:48:47;4.20;;;3.50;;
58669;SDS011;44439;47.924;10.198;2022-08-25T17:51:33;5.82;;;3.58;;
58669;SDS011;44439;47.924;10.198;2022-08-25T17:54:19;7.63;;;5.18;;
58669;SDS011;44439;47.924;10.198;2022-08-25T17:57:04;6.60;;;5.07;;
58669;SDS011;44439;47.924;10.198;2022-08-25T17:59:50;5.57;;;3.50;;
58669;SDS011;44439;47.924;10.198;2022-08-25T18:02:36;3.33;;;2.40;;
58669;SDS011;44439;47.924;10.198;2022-08-25T18:05:22;3.20;;;2.40;;
58669;SDS011;44439;47.924;10.198;2022-08-25T18:08:08;2.50;;;1.85;;
58669;SDS011;44439;47.924;10.198;2022-08-25T18:10:54;2.90;;;1.90;;
58669;SDS011;44439;47.924;10.198;2022-08-25T18:13:41;4.10;;;2.10;;
58669;SDS011;44439;47.924;10.198;2022-08-25T18:16:27;3.42;;;2.00;;
58669;SDS011;44439;47.924;10.198;2022-08-25T18:19:13;2.67;;;2.20;;